sensor_id;sensor_type;location;lat;lon;timestamp;P1;durP1;ratioP1;P2;durP2;ratioP2
78072;SDS011;67281;48.770;11.440;2023-09-18T00:02:10;1.50;;;1.40;;
78072;SDS011;67281;48.770;11.440;2023-09-18T00:04:37;1.87;;;1.77;;
78072;SDS011;67281;48.770;11.440;2023-09-18T00:07:04;2.63;;;2.10;;
78072;SDS011;67281;48.770;11.440;2023-09-18T00:09:31;1.47;;;1.37;;
78072;SDS011;67281;48.770;11.440;2023-09-18T00:11:58;2.00;;;1.80;;
78072;SDS011;67281;48.770;11.440;2023-09-18T00:14:25;1.60;;;1.50;;
78072;SDS011;67281;48.770;11.440;2023-09-18T00:16:52;2.20;;;2.00;;
78072;SDS011;67281;48.770;11.440;2023-09-18T00:19:24;1.20;;;1.20;;
78072;SDS011;67281;48.770;11.440;2023-09-18T00:21:51;1.53;;;1.43;;
78072;SDS011;67281;48.770;11.440;2023-09-18T00:24:19;1.90;;;1.80;;
78072;SDS011;67281;48.770;11.440;2023-09-18T00:26:47;2.00;;;1.80;;
78072;SDS011;67281;48.770;11.440;2023-09-18T00:29:14;2.17;;;2.00;;
78072;SDS011;67281;48.770;11.440;2023-09-18T00:31:41;2.60;;;2.20;;
78072;SDS011;67281;48.770;11.440;2023-09-18T00:34:08;1.30;;;1.30;;
78072;SDS011;67281;48.770;11.440;2023-09-18T00:36:35;1.63;;;1.50;;
78072;SDS011;67281;48.770;11.440;2023-09-18T00:39:02;1.63;;;1.53;;
78072;SDS011;67281;48.770;11.440;2023-09-18T00:41:30;1.40;;;1.30;;
78072;SDS011;67281;48.770;11.440;2023-09-18T00:43:57;1.63;;;1.53;;
78072;SDS011;67281;48.770;11.440;2023-09-18T00:46:23;1.70;;;1.60;;
78072;SDS011;67281;48.770;11.440;2023-09-18T00:48:50;1.70;;;1.60;;
78072;SDS011;67281;48.770;11.440;2023-09-18T00:51:18;2.17;;;2.07;;
78072;SDS011;67281;48.770;11.440;2023-09-18T00:53:45;1.40;;;1.30;;
78072;SDS011;67281;48.770;11.440;2023-09-18T00:56:15;1.77;;;1.67;;
78072;SDS011;67281;48.770;11.440;2023-09-18T00:58:42;1.57;;;1.47;;
78072;SDS011;67281;48.770;11.440;2023-09-18T01:01:10;1.90;;;1.80;;
78072;SDS011;67281;48.770;11.440;2023-09-18T01:03:38;1.57;;;1.47;;
78072;SDS011;67281;48.770;11.440;2023-09-18T01:06:05;1.47;;;1.37;;
78072;SDS011;67281;48.770;11.440;2023-09-18T01:08:32;1.80;;;1.70;;
78072;SDS011;67281;48.770;11.440;2023-09-18T01:11:06;1.40;;;1.30;;
78072;SDS011;67281;48.770;11.440;2023-09-18T01:13:41;1.80;;;1.70;;
78072;SDS011;67281;48.770;11.440;2023-09-18T01:16:17;1.70;;;1.60;;
78072;SDS011;67281;48.770;11.440;2023-09-18T01:18:58;1.73;;;1.63;;
78072;SDS011;67281;48.770;11.440;2023-09-18T01:21:24;1.50;;;1.40;;
78072;SDS011;67281;48.770;11.440;2023-09-18T01:23:51;3.23;;;1.93;;
78072;SDS011;67281;48.770;11.440;2023-09-18T01:26:18;1.70;;;1.60;;
78072;SDS011;67281;48.770;11.440;2023-09-18T01:28:45;2.03;;;1.87;;
78072;SDS011;67281;48.770;11.440;2023-09-18T01:31:12;2.10;;;1.97;;
78072;SDS011;67281;48.770;11.440;2023-09-18T01:33:39;1.43;;;1.33;;
78072;SDS011;67281;48.770;11.440;2023-09-18T01:36:06;1.93;;;1.83;;
78072;SDS011;67281;48.770;11.440;2023-09-18T01:38:34;1.40;;;1.30;;
78072;SDS011;67281;48.770;11.440;2023-09-18T01:41:02;2.33;;;2.13;;
78072;SDS011;67281;48.770;11.440;2023-09-18T01:43:29;2.00;;;1.80;;
78072;SDS011;67281;48.770;11.440;2023-09-18T01:45:57;1.70;;;1.60;;
78072;SDS011;67281;48.770;11.440;2023-09-18T01:48:24;1.57;;;1.47;;
78072;SDS011;67281;48.770;11.440;2023-09-18T01:50:51;1.70;;;1.60;;
78072;SDS011;67281;48.770;11.440;2023-09-18T01:53:17;1.87;;;1.77;;
78072;SDS011;67281;48.770;11.440;2023-09-18T01:55:44;2.00;;;1.83;;
78072;SDS011;67281;48.770;11.440;2023-09-18T01:58:11;1.43;;;1.40;;
78072;SDS011;67281;48.770;11.440;2023-09-18T02:00:42;2.67;;;2.23;;
78072;SDS011;67281;48.770;11.440;2023-09-18T02:03:09;2.00;;;1.90;;
78072;SDS011;67281;48.770;11.440;2023-09-18T02:05:56;1.73;;;1.63;;
78072;SDS011;67281;48.770;11.440;2023-09-18T02:08:23;1.90;;;1.80;;
78072;SDS011;67281;48.770;11.440;2023-09-18T02:10:50;2.10;;;1.90;;
78072;SDS011;67281;48.770;11.440;2023-09-18T02:13:17;2.53;;;1.50;;
78072;SDS011;67281;48.770;11.440;2023-09-18T02:15:44;2.27;;;2.03;;
78072;SDS011;67281;48.770;11.440;2023-09-18T02:18:11;3.50;;;2.50;;
78072;SDS011;67281;48.770;11.440;2023-09-18T02:20:41;2.77;;;2.20;;
78072;SDS011;67281;48.770;11.440;2023-09-18T02:23:10;1.90;;;1.80;;
78072;SDS011;67281;48.770;11.440;2023-09-18T02:25:37;1.77;;;1.67;;
78072;SDS011;67281;48.770;11.440;2023-09-18T02:28:05;1.73;;;1.63;;
78072;SDS011;67281;48.770;11.440;2023-09-18T02:30:32;1.87;;;1.77;;
78072;SDS011;67281;48.770;11.440;2023-09-18T02:32:59;1.37;;;1.33;;
78072;SDS011;67281;48.770;11.440;2023-09-18T02:35:29;1.53;;;1.43;;
78072;SDS011;67281;48.770;11.440;2023-09-18T02:37:57;2.47;;;2.27;;
78072;SDS011;67281;48.770;11.440;2023-09-18T02:40:23;1.70;;;1.60;;
78072;SDS011;67281;48.770;11.440;2023-09-18T02:42:50;1.60;;;1.50;;
78072;SDS011;67281;48.770;11.440;2023-09-18T02:45:17;2.30;;;2.13;;
78072;SDS011;67281;48.770;11.440;2023-09-18T02:47:44;3.27;;;2.47;;
78072;SDS011;67281;48.770;11.440;2023-09-18T02:50:11;3.07;;;2.50;;
78072;SDS011;67281;48.770;11.440;2023-09-18T02:52:38;1.63;;;1.53;;
78072;SDS011;67281;48.770;11.440;2023-09-18T02:55:05;1.60;;;1.50;;
78072;SDS011;67281;48.770;11.440;2023-09-18T02:57:32;1.53;;;1.43;;
78072;SDS011;67281;48.770;11.440;2023-09-18T02:59:59;1.90;;;1.80;;
78072;SDS011;67281;48.770;11.440;2023-09-18T03:02:26;1.60;;;1.50;;
78072;SDS011;67281;48.770;11.440;2023-09-18T03:04:53;1.70;;;1.60;;
78072;SDS011;67281;48.770;11.440;2023-09-18T03:07:19;1.77;;;1.67;;
78072;SDS011;67281;48.770;11.440;2023-09-18T03:09:46;1.87;;;1.77;;
78072;SDS011;67281;48.770;11.440;2023-09-18T03:12:13;2.40;;;2.20;;
78072;SDS011;67281;48.770;11.440;2023-09-18T03:14:40;1.47;;;1.37;;
78072;SDS011;67281;48.770;11.440;2023-09-18T03:17:06;2.20;;;1.90;;
78072;SDS011;67281;48.770;11.440;2023-09-18T03:19:33;2.10;;;1.80;;
78072;SDS011;67281;48.770;11.440;2023-09-18T03:22:00;1.60;;;1.50;;
78072;SDS011;67281;48.770;11.440;2023-09-18T03:24:28;2.50;;;2.30;;
78072;SDS011;67281;48.770;11.440;2023-09-18T03:26:54;1.70;;;1.60;;
78072;SDS011;67281;48.770;11.440;2023-09-18T03:29:21;1.97;;;1.77;;
78072;SDS011;67281;48.770;11.440;2023-09-18T03:31:48;2.10;;;2.00;;
78072;SDS011;67281;48.770;11.440;2023-09-18T03:34:15;2.53;;;2.37;;
78072;SDS011;67281;48.770;11.440;2023-09-18T03:36:42;1.60;;;1.50;;
78072;SDS011;67281;48.770;11.440;2023-09-18T03:39:09;1.80;;;1.70;;
78072;SDS011;67281;48.770;11.440;2023-09-18T03:41:36;2.03;;;1.63;;
78072;SDS011;67281;48.770;11.440;2023-09-18T03:44:03;6.27;;;2.40;;
78072;SDS011;67281;48.770;11.440;2023-09-18T03:46:30;2.27;;;2.00;;
78072;SDS011;67281;48.770;11.440;2023-09-18T03:48:57;1.73;;;1.60;;
78072;SDS011;67281;48.770;11.440;2023-09-18T03:51:24;1.70;;;1.60;;
78072;SDS011;67281;48.770;11.440;2023-09-18T03:53:51;3.03;;;2.53;;
78072;SDS011;67281;48.770;11.440;2023-09-18T03:56:18;1.90;;;1.63;;
78072;SDS011;67281;48.770;11.440;2023-09-18T03:58:45;1.80;;;1.70;;
78072;SDS011;67281;48.770;11.440;2023-09-18T04:01:16;2.20;;;1.97;;
78072;SDS011;67281;48.770;11.440;2023-09-18T04:03:43;1.80;;;1.70;;
78072;SDS011;67281;48.770;11.440;2023-09-18T04:06:10;2.57;;;2.37;;
78072;SDS011;67281;48.770;11.440;2023-09-18T04:08:37;2.23;;;2.13;;
78072;SDS011;67281;48.770;11.440;2023-09-18T04:11:04;1.97;;;1.87;;
78072;SDS011;67281;48.770;11.440;2023-09-18T04:13:31;1.80;;;1.70;;
78072;SDS011;67281;48.770;11.440;2023-09-18T04:16:00;1.67;;;1.53;;
78072;SDS011;67281;48.770;11.440;2023-09-18T04:18:27;1.43;;;1.33;;
78072;SDS011;67281;48.770;11.440;2023-09-18T04:20:54;3.00;;;2.07;;
78072;SDS011;67281;48.770;11.440;2023-09-18T04:23:22;2.37;;;2.20;;
78072;SDS011;67281;48.770;11.440;2023-09-18T04:25:51;2.93;;;2.73;;
78072;SDS011;67281;48.770;11.440;2023-09-18T04:28:19;2.00;;;1.90;;
78072;SDS011;67281;48.770;11.440;2023-09-18T04:30:47;1.50;;;1.40;;
78072;SDS011;67281;48.770;11.440;2023-09-18T04:33:14;2.60;;;2.47;;
78072;SDS011;67281;48.770;11.440;2023-09-18T04:35:43;2.37;;;2.17;;
78072;SDS011;67281;48.770;11.440;2023-09-18T04:38:10;2.97;;;2.67;;
78072;SDS011;67281;48.770;11.440;2023-09-18T04:40:37;2.77;;;2.43;;
78072;SDS011;67281;48.770;11.440;2023-09-18T04:43:07;2.10;;;2.00;;
78072;SDS011;67281;48.770;11.440;2023-09-18T04:45:34;3.67;;;2.17;;
78072;SDS011;67281;48.770;11.440;2023-09-18T04:48:01;2.40;;;2.20;;
78072;SDS011;67281;48.770;11.440;2023-09-18T04:50:29;2.63;;;2.10;;
78072;SDS011;67281;48.770;11.440;2023-09-18T04:52:56;2.07;;;1.90;;
78072;SDS011;67281;48.770;11.440;2023-09-18T04:55:24;2.43;;;2.27;;
78072;SDS011;67281;48.770;11.440;2023-09-18T04:57:51;2.03;;;1.83;;
78072;SDS011;67281;48.770;11.440;2023-09-18T05:00:17;1.83;;;1.73;;
78072;SDS011;67281;48.770;11.440;2023-09-18T05:02:49;4.37;;;2.07;;
78072;SDS011;67281;48.770;11.440;2023-09-18T05:05:17;1.87;;;1.77;;
78072;SDS011;67281;48.770;11.440;2023-09-18T05:07:44;2.53;;;2.33;;
78072;SDS011;67281;48.770;11.440;2023-09-18T05:10:11;2.07;;;1.97;;
78072;SDS011;67281;48.770;11.440;2023-09-18T05:12:38;4.07;;;2.17;;
78072;SDS011;67281;48.770;11.440;2023-09-18T05:15:06;2.30;;;2.10;;
78072;SDS011;67281;48.770;11.440;2023-09-18T05:17:46;1.87;;;1.77;;
78072;SDS011;67281;48.770;11.440;2023-09-18T05:20:16;1.90;;;1.80;;
78072;SDS011;67281;48.770;11.440;2023-09-18T05:22:44;1.80;;;1.70;;
78072;SDS011;67281;48.770;11.440;2023-09-18T05:25:12;2.77;;;1.97;;
78072;SDS011;67281;48.770;11.440;2023-09-18T05:27:41;2.43;;;2.23;;
78072;SDS011;67281;48.770;11.440;2023-09-18T05:30:12;3.13;;;2.93;;
78072;SDS011;67281;48.770;11.440;2023-09-18T05:32:47;3.37;;;2.70;;
78072;SDS011;67281;48.770;11.440;2023-09-18T05:35:14;2.00;;;1.83;;
78072;SDS011;67281;48.770;11.440;2023-09-18T05:37:42;2.70;;;2.17;;
78072;SDS011;67281;48.770;11.440;2023-09-18T05:40:09;2.30;;;2.13;;
78072;SDS011;67281;48.770;11.440;2023-09-18T05:42:37;3.33;;;3.03;;
78072;SDS011;67281;48.770;11.440;2023-09-18T05:45:05;2.40;;;2.20;;
78072;SDS011;67281;48.770;11.440;2023-09-18T05:47:33;2.50;;;2.30;;
78072;SDS011;67281;48.770;11.440;2023-09-18T05:50:02;2.37;;;1.83;;
78072;SDS011;67281;48.770;11.440;2023-09-18T05:52:30;2.03;;;1.93;;
78072;SDS011;67281;48.770;11.440;2023-09-18T05:54:57;2.57;;;2.37;;
78072;SDS011;67281;48.770;11.440;2023-09-18T05:57:24;2.30;;;2.10;;
78072;SDS011;67281;48.770;11.440;2023-09-18T05:59:51;2.20;;;2.07;;
78072;SDS011;67281;48.770;11.440;2023-09-18T06:02:17;2.43;;;2.23;;
78072;SDS011;67281;48.770;11.440;2023-09-18T06:04:45;2.20;;;2.10;;
78072;SDS011;67281;48.770;11.440;2023-09-18T06:07:12;2.53;;;2.30;;
78072;SDS011;67281;48.770;11.440;2023-09-18T06:09:39;2.30;;;2.00;;
78072;SDS011;67281;48.770;11.440;2023-09-18T06:12:06;2.20;;;2.10;;
78072;SDS011;67281;48.770;11.440;2023-09-18T06:14:36;2.80;;;2.50;;
78072;SDS011;67281;48.770;11.440;2023-09-18T06:17:04;2.37;;;1.77;;
78072;SDS011;67281;48.770;11.440;2023-09-18T06:19:33;2.40;;;2.20;;
78072;SDS011;67281;48.770;11.440;2023-09-18T06:22:00;1.60;;;1.53;;
78072;SDS011;67281;48.770;11.440;2023-09-18T06:24:27;3.47;;;2.27;;
78072;SDS011;67281;48.770;11.440;2023-09-18T06:26:54;2.57;;;2.33;;
78072;SDS011;67281;48.770;11.440;2023-09-18T06:29:21;1.70;;;1.60;;
78072;SDS011;67281;48.770;11.440;2023-09-18T06:31:49;2.27;;;1.97;;
78072;SDS011;67281;48.770;11.440;2023-09-18T06:34:16;2.10;;;2.00;;
78072;SDS011;67281;48.770;11.440;2023-09-18T06:36:46;1.63;;;1.53;;
78072;SDS011;67281;48.770;11.440;2023-09-18T06:39:13;1.83;;;1.73;;
78072;SDS011;67281;48.770;11.440;2023-09-18T06:41:40;2.40;;;2.20;;
78072;SDS011;67281;48.770;11.440;2023-09-18T06:44:07;2.40;;;2.23;;
78072;SDS011;67281;48.770;11.440;2023-09-18T06:46:34;2.50;;;2.37;;
78072;SDS011;67281;48.770;11.440;2023-09-18T06:49:01;1.97;;;1.87;;
78072;SDS011;67281;48.770;11.440;2023-09-18T06:51:30;3.00;;;2.80;;
78072;SDS011;67281;48.770;11.440;2023-09-18T06:54:02;2.87;;;2.57;;
78072;SDS011;67281;48.770;11.440;2023-09-18T06:56:29;3.17;;;2.73;;
78072;SDS011;67281;48.770;11.440;2023-09-18T06:58:56;2.37;;;2.20;;
78072;SDS011;67281;48.770;11.440;2023-09-18T07:01:23;2.00;;;1.90;;
78072;SDS011;67281;48.770;11.440;2023-09-18T07:03:51;2.60;;;2.40;;
78072;SDS011;67281;48.770;11.440;2023-09-18T07:06:18;2.50;;;2.23;;
78072;SDS011;67281;48.770;11.440;2023-09-18T07:08:46;4.40;;;3.30;;
78072;SDS011;67281;48.770;11.440;2023-09-18T07:11:17;2.57;;;2.37;;
78072;SDS011;67281;48.770;11.440;2023-09-18T07:13:44;2.60;;;2.37;;
78072;SDS011;67281;48.770;11.440;2023-09-18T07:16:11;3.03;;;2.17;;
78072;SDS011;67281;48.770;11.440;2023-09-18T07:18:38;3.00;;;2.77;;
78072;SDS011;67281;48.770;11.440;2023-09-18T07:21:05;2.10;;;1.90;;
78072;SDS011;67281;48.770;11.440;2023-09-18T07:23:31;2.73;;;2.30;;
78072;SDS011;67281;48.770;11.440;2023-09-18T07:25:58;2.67;;;2.47;;
78072;SDS011;67281;48.770;11.440;2023-09-18T07:28:25;1.60;;;1.50;;
78072;SDS011;67281;48.770;11.440;2023-09-18T07:30:52;3.60;;;2.67;;
78072;SDS011;67281;48.770;11.440;2023-09-18T07:33:19;2.67;;;2.47;;
78072;SDS011;67281;48.770;11.440;2023-09-18T07:35:47;3.53;;;2.00;;
78072;SDS011;67281;48.770;11.440;2023-09-18T07:38:14;4.03;;;2.10;;
78072;SDS011;67281;48.770;11.440;2023-09-18T07:40:41;2.27;;;2.10;;
78072;SDS011;67281;48.770;11.440;2023-09-18T07:43:08;3.47;;;2.57;;
78072;SDS011;67281;48.770;11.440;2023-09-18T07:45:37;2.07;;;1.93;;
78072;SDS011;67281;48.770;11.440;2023-09-18T07:48:06;2.20;;;2.00;;
78072;SDS011;67281;48.770;11.440;2023-09-18T07:50:34;2.93;;;2.60;;
78072;SDS011;67281;48.770;11.440;2023-09-18T07:53:02;2.10;;;1.93;;
78072;SDS011;67281;48.770;11.440;2023-09-18T07:55:29;2.13;;;1.83;;
78072;SDS011;67281;48.770;11.440;2023-09-18T07:57:56;2.33;;;2.13;;
78072;SDS011;67281;48.770;11.440;2023-09-18T08:00:25;1.67;;;1.50;;
78072;SDS011;67281;48.770;11.440;2023-09-18T08:02:53;2.03;;;1.60;;
78072;SDS011;67281;48.770;11.440;2023-09-18T08:05:25;1.50;;;1.40;;
78072;SDS011;67281;48.770;11.440;2023-09-18T08:07:54;2.20;;;2.00;;
78072;SDS011;67281;48.770;11.440;2023-09-18T08:10:25;1.90;;;1.80;;
78072;SDS011;67281;48.770;11.440;2023-09-18T08:12:52;1.90;;;1.80;;
78072;SDS011;67281;48.770;11.440;2023-09-18T08:15:20;5.70;;;2.57;;
78072;SDS011;67281;48.770;11.440;2023-09-18T08:17:47;2.10;;;1.97;;
78072;SDS011;67281;48.770;11.440;2023-09-18T08:20:19;1.83;;;1.73;;
78072;SDS011;67281;48.770;11.440;2023-09-18T08:22:46;2.47;;;2.27;;
78072;SDS011;67281;48.770;11.440;2023-09-18T08:25:14;2.53;;;2.07;;
78072;SDS011;67281;48.770;11.440;2023-09-18T08:27:41;5.83;;;2.40;;
78072;SDS011;67281;48.770;11.440;2023-09-18T08:30:11;3.23;;;2.10;;
78072;SDS011;67281;48.770;11.440;2023-09-18T08:32:39;1.73;;;1.63;;
78072;SDS011;67281;48.770;11.440;2023-09-18T08:35:07;2.10;;;1.97;;
78072;SDS011;67281;48.770;11.440;2023-09-18T08:37:35;1.20;;;1.20;;
78072;SDS011;67281;48.770;11.440;2023-09-18T08:40:02;2.40;;;2.20;;
78072;SDS011;67281;48.770;11.440;2023-09-18T08:42:46;3.23;;;2.33;;
78072;SDS011;67281;48.770;11.440;2023-09-18T08:45:15;1.80;;;1.70;;
78072;SDS011;67281;48.770;11.440;2023-09-18T08:48:04;2.40;;;2.10;;
78072;SDS011;67281;48.770;11.440;2023-09-18T08:50:33;2.43;;;2.23;;
78072;SDS011;67281;48.770;11.440;2023-09-18T08:53:01;2.87;;;2.40;;
78072;SDS011;67281;48.770;11.440;2023-09-18T08:55:31;2.70;;;2.03;;
78072;SDS011;67281;48.770;11.440;2023-09-18T08:58:00;5.50;;;3.87;;
78072;SDS011;67281;48.770;11.440;2023-09-18T09:00:27;3.33;;;2.27;;
78072;SDS011;67281;48.770;11.440;2023-09-18T09:02:55;2.33;;;2.13;;
78072;SDS011;67281;48.770;11.440;2023-09-18T09:05:22;2.33;;;2.13;;
78072;SDS011;67281;48.770;11.440;2023-09-18T09:07:50;2.50;;;1.67;;
78072;SDS011;67281;48.770;11.440;2023-09-18T09:10:17;1.47;;;1.37;;
78072;SDS011;67281;48.770;11.440;2023-09-18T09:12:48;2.87;;;2.43;;
78072;SDS011;67281;48.770;11.440;2023-09-18T09:15:15;2.00;;;1.90;;
78072;SDS011;67281;48.770;11.440;2023-09-18T09:17:43;3.90;;;2.23;;
78072;SDS011;67281;48.770;11.440;2023-09-18T09:20:11;3.33;;;2.17;;
78072;SDS011;67281;48.770;11.440;2023-09-18T09:22:40;2.30;;;2.10;;
78072;SDS011;67281;48.770;11.440;2023-09-18T09:27:48;2.00;;;1.90;;
78072;SDS011;67281;48.770;11.440;2023-09-18T09:30:18;2.50;;;2.27;;
78072;SDS011;67281;48.770;11.440;2023-09-18T09:32:48;1.90;;;1.50;;
78072;SDS011;67281;48.770;11.440;2023-09-18T09:35:35;1.50;;;1.40;;
78072;SDS011;67281;48.770;11.440;2023-09-18T09:40:38;2.80;;;1.93;;
78072;SDS011;67281;48.770;11.440;2023-09-18T09:43:08;2.83;;;2.60;;
78072;SDS011;67281;48.770;11.440;2023-09-18T09:45:36;1.90;;;1.67;;
78072;SDS011;67281;48.770;11.440;2023-09-18T09:48:03;1.60;;;1.50;;
78072;SDS011;67281;48.770;11.440;2023-09-18T09:50:47;2.45;;;1.92;;
78072;SDS011;67281;48.770;11.440;2023-09-18T09:53:15;1.50;;;1.40;;
78072;SDS011;67281;48.770;11.440;2023-09-18T09:55:43;2.33;;;1.80;;
78072;SDS011;67281;48.770;11.440;2023-09-18T09:58:14;1.40;;;1.25;;
78072;SDS011;67281;48.770;11.440;2023-09-18T10:00:41;1.30;;;1.20;;
78072;SDS011;67281;48.770;11.440;2023-09-18T10:03:14;1.35;;;1.25;;
78072;SDS011;67281;48.770;11.440;2023-09-18T10:05:46;0.98;;;0.98;;
78072;SDS011;67281;48.770;11.440;2023-09-18T10:08:23;1.58;;;1.48;;
78072;SDS011;67281;48.770;11.440;2023-09-18T10:11:00;1.95;;;1.65;;
78072;SDS011;67281;48.770;11.440;2023-09-18T10:13:40;1.35;;;1.25;;
78072;SDS011;67281;48.770;11.440;2023-09-18T10:16:18;1.55;;;1.45;;
78072;SDS011;67281;48.770;11.440;2023-09-18T10:18:55;1.60;;;1.50;;
78072;SDS011;67281;48.770;11.440;2023-09-18T10:24:25;0.70;;;0.70;;
78072;SDS011;67281;48.770;11.440;2023-09-18T10:27:01;1.20;;;1.13;;
78072;SDS011;67281;48.770;11.440;2023-09-18T10:29:30;1.38;;;1.27;;
78072;SDS011;67281;48.770;11.440;2023-09-18T10:31:59;1.13;;;1.02;;
78072;SDS011;67281;48.770;11.440;2023-09-18T10:34:30;2.28;;;1.52;;
78072;SDS011;67281;48.770;11.440;2023-09-18T10:37:00;2.20;;;0.87;;
78072;SDS011;67281;48.770;11.440;2023-09-18T10:39:37;2.15;;;1.65;;
78072;SDS011;67281;48.770;11.440;2023-09-18T10:42:08;1.48;;;1.38;;
78072;SDS011;67281;48.770;11.440;2023-09-18T10:44:36;0.80;;;0.80;;
78072;SDS011;67281;48.770;11.440;2023-09-18T10:47:08;1.17;;;1.08;;
78072;SDS011;67281;48.770;11.440;2023-09-18T10:49:38;0.52;;;0.52;;
78072;SDS011;67281;48.770;11.440;2023-09-18T10:52:05;1.45;;;1.05;;
78072;SDS011;67281;48.770;11.440;2023-09-18T10:54:37;1.70;;;1.30;;
78072;SDS011;67281;48.770;11.440;2023-09-18T10:57:04;1.67;;;1.37;;
78072;SDS011;67281;48.770;11.440;2023-09-18T10:59:31;0.88;;;0.88;;
78072;SDS011;67281;48.770;11.440;2023-09-18T11:02:04;0.82;;;0.82;;
78072;SDS011;67281;48.770;11.440;2023-09-18T11:04:32;1.15;;;1.05;;
78072;SDS011;67281;48.770;11.440;2023-09-18T11:09:27;0.70;;;0.70;;
78072;SDS011;67281;48.770;11.440;2023-09-18T11:22:47;0.80;;;0.80;;
78072;SDS011;67281;48.770;11.440;2023-09-18T11:28:01;0.80;;;0.80;;
78072;SDS011;67281;48.770;11.440;2023-09-18T11:30:29;0.68;;;0.68;;
78072;SDS011;67281;48.770;11.440;2023-09-18T11:32:56;0.82;;;0.82;;
78072;SDS011;67281;48.770;11.440;2023-09-18T11:35:24;1.52;;;1.10;;
78072;SDS011;67281;48.770;11.440;2023-09-18T11:38:05;0.90;;;0.88;;
78072;SDS011;67281;48.770;11.440;2023-09-18T11:40:34;1.65;;;1.25;;
78072;SDS011;67281;48.770;11.440;2023-09-18T11:43:20;1.17;;;1.17;;
78072;SDS011;67281;48.770;11.440;2023-09-18T11:45:52;0.57;;;0.57;;
78072;SDS011;67281;48.770;11.440;2023-09-18T11:48:22;0.50;;;0.50;;
78072;SDS011;67281;48.770;11.440;2023-09-18T11:50:51;0.50;;;0.50;;
78072;SDS011;67281;48.770;11.440;2023-09-18T11:53:20;4.78;;;1.13;;
78072;SDS011;67281;48.770;11.440;2023-09-18T11:55:50;0.65;;;0.65;;
78072;SDS011;67281;48.770;11.440;2023-09-18T11:58:17;0.90;;;0.75;;
78072;SDS011;67281;48.770;11.440;2023-09-18T12:00:46;0.50;;;0.50;;
78072;SDS011;67281;48.770;11.440;2023-09-18T12:03:14;0.93;;;0.80;;
78072;SDS011;67281;48.770;11.440;2023-09-18T12:05:58;0.68;;;0.68;;
78072;SDS011;67281;48.770;11.440;2023-09-18T12:08:28;0.50;;;0.50;;
78072;SDS011;67281;48.770;11.440;2023-09-18T12:10:58;1.95;;;1.23;;
78072;SDS011;67281;48.770;11.440;2023-09-18T12:13:25;0.80;;;0.80;;
78072;SDS011;67281;48.770;11.440;2023-09-18T12:16:02;0.83;;;0.83;;
78072;SDS011;67281;48.770;11.440;2023-09-18T12:18:35;0.93;;;0.93;;
78072;SDS011;67281;48.770;11.440;2023-09-18T12:21:07;0.65;;;0.65;;
78072;SDS011;67281;48.770;11.440;2023-09-18T12:23:37;0.50;;;0.50;;
78072;SDS011;67281;48.770;11.440;2023-09-18T12:26:05;0.97;;;0.90;;
78072;SDS011;67281;48.770;11.440;2023-09-18T12:28:35;1.23;;;0.93;;
78072;SDS011;67281;48.770;11.440;2023-09-18T12:31:03;0.85;;;0.85;;
78072;SDS011;67281;48.770;11.440;2023-09-18T12:33:34;1.10;;;1.00;;
78072;SDS011;67281;48.770;11.440;2023-09-18T12:36:03;0.83;;;0.83;;
78072;SDS011;67281;48.770;11.440;2023-09-18T12:38:31;0.73;;;0.73;;
78072;SDS011;67281;48.770;11.440;2023-09-18T12:40:59;0.80;;;0.80;;
78072;SDS011;67281;48.770;11.440;2023-09-18T12:43:39;0.40;;;0.40;;
78072;SDS011;67281;48.770;11.440;2023-09-18T12:46:08;0.77;;;0.77;;
78072;SDS011;67281;48.770;11.440;2023-09-18T12:48:38;0.53;;;0.53;;
78072;SDS011;67281;48.770;11.440;2023-09-18T12:51:13;1.03;;;0.90;;
78072;SDS011;67281;48.770;11.440;2023-09-18T12:53:58;0.83;;;0.83;;
78072;SDS011;67281;48.770;11.440;2023-09-18T12:56:26;0.80;;;0.80;;
78072;SDS011;67281;48.770;11.440;2023-09-18T12:58:56;0.87;;;0.87;;
78072;SDS011;67281;48.770;11.440;2023-09-18T13:01:27;0.73;;;0.73;;
78072;SDS011;67281;48.770;11.440;2023-09-18T13:03:54;1.13;;;0.60;;
78072;SDS011;67281;48.770;11.440;2023-09-18T13:06:32;0.50;;;0.50;;
78072;SDS011;67281;48.770;11.440;2023-09-18T13:09:15;0.50;;;0.50;;
78072;SDS011;67281;48.770;11.440;2023-09-18T13:11:52;0.70;;;0.70;;
78072;SDS011;67281;48.770;11.440;2023-09-18T13:14:20;0.63;;;0.63;;
78072;SDS011;67281;48.770;11.440;2023-09-18T13:16:47;0.83;;;0.60;;
78072;SDS011;67281;48.770;11.440;2023-09-18T13:19:14;0.80;;;0.80;;
78072;SDS011;67281;48.770;11.440;2023-09-18T13:21:50;0.67;;;0.67;;
78072;SDS011;67281;48.770;11.440;2023-09-18T13:24:25;0.60;;;0.60;;
78072;SDS011;67281;48.770;11.440;2023-09-18T13:26:53;0.70;;;0.70;;
78072;SDS011;67281;48.770;11.440;2023-09-18T13:29:21;0.60;;;0.60;;
78072;SDS011;67281;48.770;11.440;2023-09-18T13:31:48;0.50;;;0.50;;
78072;SDS011;67281;48.770;11.440;2023-09-18T13:34:15;2.77;;;0.73;;
78072;SDS011;67281;48.770;11.440;2023-09-18T13:36:45;1.00;;;0.90;;
78072;SDS011;67281;48.770;11.440;2023-09-18T13:39:12;0.67;;;0.67;;
78072;SDS011;67281;48.770;11.440;2023-09-18T13:41:39;0.50;;;0.50;;
78072;SDS011;67281;48.770;11.440;2023-09-18T13:44:09;1.07;;;0.97;;
78072;SDS011;67281;48.770;11.440;2023-09-18T13:46:37;0.60;;;0.60;;
78072;SDS011;67281;48.770;11.440;2023-09-18T13:49:04;0.70;;;0.70;;
78072;SDS011;67281;48.770;11.440;2023-09-18T13:51:31;1.13;;;1.03;;
78072;SDS011;67281;48.770;11.440;2023-09-18T13:53:59;0.40;;;0.40;;
78072;SDS011;67281;48.770;11.440;2023-09-18T13:56:26;0.60;;;0.60;;
78072;SDS011;67281;48.770;11.440;2023-09-18T13:58:55;0.57;;;0.57;;
78072;SDS011;67281;48.770;11.440;2023-09-18T14:01:23;0.50;;;0.50;;
78072;SDS011;67281;48.770;11.440;2023-09-18T14:03:52;0.60;;;0.60;;
78072;SDS011;67281;48.770;11.440;2023-09-18T14:06:20;0.83;;;0.77;;
78072;SDS011;67281;48.770;11.440;2023-09-18T14:08:47;0.47;;;0.47;;
78072;SDS011;67281;48.770;11.440;2023-09-18T14:11:14;0.73;;;0.73;;
78072;SDS011;67281;48.770;11.440;2023-09-18T14:13:41;0.63;;;0.63;;
78072;SDS011;67281;48.770;11.440;2023-09-18T14:16:09;1.00;;;0.93;;
78072;SDS011;67281;48.770;11.440;2023-09-18T14:18:37;0.57;;;0.57;;
78072;SDS011;67281;48.770;11.440;2023-09-18T14:21:05;1.63;;;0.53;;
78072;SDS011;67281;48.770;11.440;2023-09-18T14:23:33;1.10;;;0.63;;
78072;SDS011;67281;48.770;11.440;2023-09-18T14:26:01;0.60;;;0.60;;
78072;SDS011;67281;48.770;11.440;2023-09-18T14:28:28;1.07;;;0.70;;
78072;SDS011;67281;48.770;11.440;2023-09-18T14:30:55;0.50;;;0.50;;
78072;SDS011;67281;48.770;11.440;2023-09-18T14:33:21;3.90;;;1.03;;
78072;SDS011;67281;48.770;11.440;2023-09-18T14:35:49;2.20;;;0.80;;
78072;SDS011;67281;48.770;11.440;2023-09-18T14:38:16;0.40;;;0.40;;
78072;SDS011;67281;48.770;11.440;2023-09-18T14:40:43;0.73;;;0.73;;
78072;SDS011;67281;48.770;11.440;2023-09-18T14:43:10;1.27;;;0.90;;
78072;SDS011;67281;48.770;11.440;2023-09-18T14:45:38;0.50;;;0.50;;
78072;SDS011;67281;48.770;11.440;2023-09-18T14:48:06;0.60;;;0.60;;
78072;SDS011;67281;48.770;11.440;2023-09-18T14:50:33;0.40;;;0.40;;
78072;SDS011;67281;48.770;11.440;2023-09-18T14:53:00;0.80;;;0.80;;
78072;SDS011;67281;48.770;11.440;2023-09-18T14:55:27;0.40;;;0.40;;
78072;SDS011;67281;48.770;11.440;2023-09-18T14:57:54;1.23;;;0.57;;
78072;SDS011;67281;48.770;11.440;2023-09-18T15:00:21;0.40;;;0.40;;
78072;SDS011;67281;48.770;11.440;2023-09-18T15:02:48;0.63;;;0.63;;
78072;SDS011;67281;48.770;11.440;2023-09-18T15:05:15;0.70;;;0.70;;
78072;SDS011;67281;48.770;11.440;2023-09-18T15:07:44;0.50;;;0.50;;